Time;durP1;ratioP1;P1;durP2;ratioP2;P2;SDS_P1;SDS_P2;PMS_P1;PMS_P2;Temp;Humidity;BMP_temperature;BMP_pressure;BME280_temperature;BME280_humidity;BME280_pressure;Samples;Min_cycle;Max_cycle;Signal;HPM_P1;HPM_P2
2021/01/09 00:02:25;;;;;;;42.83;31.52;;;128.20;2176.00;;;;;;5138014;27;20019;-81
2021/01/09 00:04:51;;;;;;;49.30;35.42;;;128.20;2176.00;;;;;;5137868;27;20523;-81
2021/01/09 00:07:16;;;;;;;51.15;38.53;;;128.30;2150.40;;;;;;5137805;27;20030;-80
2021/01/09 00:09:42;;;;;;;61.78;45.50;;;128.20;2150.40;;;;;;5137705;27;20030;-80
2021/01/09 00:12:12;;;;;;;57.20;40.47;;;128.20;2150.40;;;;;;5137750;27;20114;-77
2021/01/09 00:14:38;;;;;;;57.45;41.25;;;128.20;2176.00;;;;;;5118812;27;20374;-77
2021/01/09 00:17:04;;;;;;;69.18;47.90;;;128.20;2176.00;;;;;;5137272;27;20027;-78
2021/01/09 00:19:30;;;;;;;82.68;55.67;;;128.20;2176.00;;;;;;5137552;27;20576;-82
2021/01/09 00:21:57;;;;;;;75.20;53.30;;;128.20;2176.00;;;;;;5137920;27;20033;-78
2021/01/09 00:24:23;;;;;;;67.45;46.22;;;128.30;2176.00;;;;;;5119156;27;20387;-80
2021/01/09 00:26:48;;;;;;;72.18;46.92;;;128.30;2176.00;;;;;;5136923;27;20081;-78
2021/01/09 00:29:14;;;;;;;59.08;42.30;;;128.30;2176.00;;;;;;5118083;27;20050;-79
2021/01/09 00:31:40;;;;;;;56.92;36.80;;;128.30;2176.00;;;;;;5137080;27;20439;-78
2021/01/09 00:34:06;;;;;;;52.33;34.38;;;128.30;2176.00;;;;;;5137290;27;20023;-78
2021/01/09 00:36:32;;;;;;;55.10;36.22;;;128.20;2150.40;;;;;;5137539;27;20409;-80
2021/01/09 00:38:57;;;;;;;62.10;39.03;;;128.20;2150.40;;;;;;5136496;27;20102;-77
2021/01/09 00:41:31;;;;;;;58.40;39.53;;;128.30;2176.00;;;;;;5136432;27;20407;-78
2021/01/09 00:43:58;;;;;;;62.53;40.88;;;128.20;2176.00;;;;;;5136975;27;20030;-79
2021/01/09 00:46:24;;;;;;;55.00;35.53;;;128.20;2176.00;;;;;;5136488;27;20027;-77
2021/01/09 00:48:50;;;;;;;50.97;36.65;;;128.20;2176.00;;;;;;5136616;27;20030;-80
2021/01/09 00:51:16;;;;;;;59.20;38.05;;;128.20;2176.00;;;;;;5135388;27;20023;-78
2021/01/09 00:53:42;;;;;;;63.03;41.50;;;128.20;2176.00;;;;;;5136549;27;20031;-79
2021/01/09 00:56:08;;;;;;;68.32;43.78;;;128.30;2176.00;;;;;;5136513;27;20486;-80
2021/01/09 00:58:34;;;;;;;53.45;35.60;;;128.30;2176.00;;;;;;5136810;27;20483;-80
2021/01/09 01:01:01;;;;;;;51.15;35.80;;;128.30;2150.40;;;;;;5137096;27;20020;-79
2021/01/09 01:03:27;;;;;;;53.30;34.58;;;128.30;2150.40;;;;;;5137038;27;20102;-81
2021/01/09 01:05:53;;;;;;;43.58;30.65;;;128.30;2150.40;;;;;;5136919;27;20055;-82
2021/01/09 01:08:20;;;;;;;44.72;29.45;;;128.30;2150.40;;;;;;5136567;27;20026;-78
2021/01/09 01:10:46;;;;;;;40.35;29.42;;;128.30;2176.00;;;;;;5134737;27;20348;-78
2021/01/09 01:13:13;;;;;;;32.65;22.52;;;128.30;2150.40;;;;;;5115689;28;20031;-80
2021/01/09 01:15:39;;;;;;;37.78;24.77;;;128.30;2150.40;;;;;;5115974;28;20111;-79
2021/01/09 01:18:05;;;;;;;44.25;26.75;;;128.30;2150.40;;;;;;5115753;28;20055;-81
2021/01/09 01:20:30;;;;;;;52.15;32.10;;;128.30;2150.40;;;;;;5115637;28;20446;-81
2021/01/09 01:22:56;;;;;;;52.33;31.73;;;128.30;2150.40;;;;;;5115754;28;20024;-80
2021/01/09 01:25:22;;;;;;;48.78;29.60;;;128.20;2150.40;;;;;;5115622;28;20049;-80
2021/01/09 01:27:47;;;;;;;48.80;30.25;;;128.20;2150.40;;;;;;5115605;28;20071;-80
2021/01/09 01:30:13;;;;;;;45.58;32.25;;;128.30;2150.40;;;;;;5115756;28;20032;-79
2021/01/09 01:32:39;;;;;;;49.33;30.40;;;128.20;2150.40;;;;;;5115371;28;20032;-80
2021/01/09 01:35:05;;;;;;;50.25;33.60;;;128.20;2176.00;;;;;;5115621;28;20376;-80
2021/01/09 01:37:31;;;;;;;54.35;33.30;;;128.20;2176.00;;;;;;5115193;28;20024;-79
2021/01/09 01:39:57;;;;;;;57.92;38.22;;;128.30;2150.40;;;;;;5115486;28;20027;-79
2021/01/09 01:42:23;;;;;;;55.45;36.25;;;128.30;2176.00;;;;;;5115305;28;20480;-79
2021/01/09 01:44:48;;;;;;;54.97;35.75;;;128.20;2201.60;;;;;;5115324;28;20020;-79
2021/01/09 01:47:18;;;;;;;73.43;48.13;;;128.20;2176.00;;;;;;5096859;28;20028;-79
2021/01/09 01:49:49;;;;;;;57.72;39.00;;;128.20;2176.00;;;;;;5115227;28;20055;-79
2021/01/09 01:52:16;;;;;;;45.50;33.15;;;128.20;2176.00;;;;;;5114840;28;20038;-79
2021/01/09 01:54:47;;;;;;;50.45;34.42;;;128.20;2176.00;;;;;;5114910;28;20145;-79
2021/01/09 01:57:13;;;;;;;48.55;34.83;;;128.20;2176.00;;;;;;5114750;28;20024;-78
2021/01/09 01:59:39;;;;;;;39.85;26.58;;;128.20;2201.60;;;;;;5115036;28;20024;-79
2021/01/09 02:02:07;;;;;;;38.85;27.02;;;128.20;2176.00;;;;;;5096363;28;20012;-79
2021/01/09 02:04:33;;;;;;;41.28;28.52;;;128.20;2201.60;;;;;;5114948;28;20030;-78
2021/01/09 02:07:05;;;;;;;44.63;31.30;;;128.20;2176.00;;;;;;5115152;28;20030;-79
2021/01/09 02:09:35;;;;;;;44.85;30.52;;;128.30;2176.00;;;;;;5114777;28;20028;-79
2021/01/09 02:12:15;;;;;;;51.25;32.95;;;128.20;2176.00;;;;;;5114605;28;20111;-80
2021/01/09 02:14:50;;;;;;;50.22;33.42;;;128.20;2176.00;;;;;;5114931;28;20073;-80
2021/01/09 02:17:17;;;;;;;55.80;37.67;;;128.20;2176.00;;;;;;5114658;28;20020;-79
2021/01/09 02:19:44;;;;;;;61.80;40.85;;;128.20;2176.00;;;;;;5114678;28;20022;-80
2021/01/09 02:22:12;;;;;;;43.38;28.15;;;128.10;2176.00;;;;;;5114659;28;20371;-80
2021/01/09 02:24:38;;;;;;;37.45;25.67;;;128.10;2176.00;;;;;;5114384;28;20548;-79
2021/01/09 02:27:08;;;;;;;38.72;24.73;;;128.20;2176.00;;;;;;5114421;28;20073;-79
2021/01/09 02:29:37;;;;;;;52.28;35.80;;;128.20;2176.00;;;;;;5114619;28;20046;-82
2021/01/09 02:32:06;;;;;;;46.38;31.33;;;128.20;2176.00;;;;;;5114747;28;20036;-84
2021/01/09 02:35:13;;;;;;;42.65;30.02;;;128.20;2176.00;;;;;;5114678;28;20076;-82
2021/01/09 02:37:39;;;;;;;44.80;30.25;;;128.30;2176.00;;;;;;5032251;28;20033;-82
2021/01/09 02:40:06;;;;;;;59.03;37.22;;;128.20;2176.00;;;;;;5015504;28;20026;-79
2021/01/09 02:42:32;;;;;;;53.40;35.13;;;128.20;2176.00;;;;;;5034470;28;20087;-79
2021/01/09 02:44:58;;;;;;;49.60;34.42;;;128.30;2176.00;;;;;;5051314;28;20485;-80
2021/01/09 02:47:23;;;;;;;50.60;33.70;;;128.20;2176.00;;;;;;5051771;28;20029;-79
2021/01/09 02:49:49;;;;;;;49.88;35.17;;;128.20;2176.00;;;;;;5051604;28;20037;-80
2021/01/09 02:52:15;;;;;;;49.78;35.90;;;128.20;2176.00;;;;;;5051529;28;20520;-79
2021/01/09 02:54:40;;;;;;;50.45;34.17;;;128.30;2176.00;;;;;;5051503;28;20472;-81
2021/01/09 02:57:06;;;;;;;53.03;37.80;;;128.30;2176.00;;;;;;5051242;28;20033;-81
2021/01/09 02:59:32;;;;;;;54.70;33.80;;;128.30;2176.00;;;;;;5051586;28;20021;-80
2021/01/09 03:01:58;;;;;;;54.25;31.90;;;128.30;2150.40;;;;;;5034483;28;20112;-81
2021/01/09 03:04:23;;;;;;;52.42;30.33;;;128.30;2150.40;;;;;;5051698;28;20067;-80
2021/01/09 03:06:49;;;;;;;54.80;30.67;;;128.30;2150.40;;;;;;5051712;28;20068;-81
2021/01/09 03:09:14;;;;;;;51.35;32.03;;;128.30;2150.40;;;;;;5088888;28;20034;-80
2021/01/09 03:11:40;;;;;;;46.50;28.55;;;128.40;2150.40;;;;;;5113904;28;20464;-80
2021/01/09 03:14:06;;;;;;;38.33;25.10;;;128.40;2150.40;;;;;;5115150;28;20023;-79
2021/01/09 03:16:32;;;;;;;32.92;23.55;;;128.40;2150.40;;;;;;5118048;28;20061;-80
2021/01/09 03:18:57;;;;;;;54.38;39.17;;;128.40;2150.40;;;;;;5118314;28;20031;-81
2021/01/09 03:21:23;;;;;;;61.90;44.65;;;128.40;2150.40;;;;;;5118366;28;20039;-82
2021/01/09 03:23:49;;;;;;;68.35;47.78;;;128.30;2150.40;;;;;;5118116;28;20098;-80
2021/01/09 03:26:15;;;;;;;74.80;53.10;;;128.30;2150.40;;;;;;5118059;28;20027;-81
2021/01/09 03:28:41;;;;;;;57.05;37.75;;;128.30;2150.40;;;;;;5118126;28;20027;-80
2021/01/09 03:31:07;;;;;;;47.75;31.45;;;128.20;2150.40;;;;;;5117831;28;20023;-80
2021/01/09 03:33:33;;;;;;;46.60;32.22;;;128.20;2150.40;;;;;;5117939;28;20067;-80
2021/01/09 03:35:58;;;;;;;54.30;35.78;;;128.20;2150.40;;;;;;5117956;28;20019;-77
2021/01/09 03:38:24;;;;;;;71.75;44.05;;;128.20;2150.40;;;;;;5118073;28;20110;-80
2021/01/09 03:40:50;;;;;;;63.20;41.88;;;128.20;2150.40;;;;;;5117856;28;20024;-80
2021/01/09 03:43:15;;;;;;;54.13;35.55;;;128.20;2176.00;;;;;;5117777;28;20055;-79
2021/01/09 03:45:41;;;;;;;56.55;35.97;;;128.20;2150.40;;;;;;5117457;28;20464;-79
2021/01/09 03:48:07;;;;;;;52.55;33.25;;;128.30;2150.40;;;;;;5117509;28;20048;-78
2021/01/09 03:50:33;;;;;;;52.88;33.50;;;128.30;2150.40;;;;;;5117616;28;20020;-79
2021/01/09 03:52:59;;;;;;;61.20;38.17;;;128.30;2176.00;;;;;;5099109;28;20055;-79
2021/01/09 03:55:25;;;;;;;64.50;42.05;;;128.30;2176.00;;;;;;5117346;28;20073;-78
2021/01/09 03:57:50;;;;;;;55.67;39.22;;;128.30;2176.00;;;;;;5117230;28;20136;-79
2021/01/09 04:00:16;;;;;;;60.05;38.22;;;128.30;2176.00;;;;;;5116968;28;20023;-78
2021/01/09 04:02:42;;;;;;;58.97;35.78;;;128.30;2176.00;;;;;;5117206;28;20025;-78
2021/01/09 04:05:09;;;;;;;62.58;38.60;;;128.30;2176.00;;;;;;5117313;28;20023;-79
2021/01/09 04:07:35;;;;;;;60.97;40.20;;;128.30;2176.00;;;;;;5117059;28;20020;-80
2021/01/09 04:10:01;;;;;;;62.65;41.63;;;128.30;2176.00;;;;;;5081908;28;20023;-78
2021/01/09 04:12:26;;;;;;;66.35;41.33;;;128.30;2176.00;;;;;;5116591;28;20536;-78
2021/01/09 04:14:52;;;;;;;68.57;43.58;;;128.20;2176.00;;;;;;5117126;28;20065;-80
2021/01/09 04:17:18;;;;;;;60.60;39.35;;;128.20;2150.40;;;;;;5116933;28;20049;-76
2021/01/09 04:19:43;;;;;;;58.40;36.30;;;128.20;2150.40;;;;;;5116911;28;20518;-80
2021/01/09 04:22:09;;;;;;;59.60;37.13;;;128.20;2150.40;;;;;;5116949;28;20026;-79
2021/01/09 04:24:35;;;;;;;55.70;35.85;;;128.10;2176.00;;;;;;5116499;28;20034;-80
2021/01/09 04:27:03;;;;;;;50.13;32.28;;;128.00;2176.00;;;;;;5116491;28;20463;-79
2021/01/09 04:29:29;;;;;;;51.97;33.42;;;128.00;2176.00;;;;;;5116597;28;20044;-79
2021/01/09 04:31:55;;;;;;;54.33;35.30;;;128.10;2176.00;;;;;;5117131;28;20027;-85
2021/01/09 04:34:23;;;;;;;57.55;36.88;;;128.10;2150.40;;;;;;5117228;28;20087;-83
2021/01/09 04:36:49;;;;;;;53.95;37.05;;;128.10;2176.00;;;;;;5117316;28;20104;-83
2021/01/09 04:39:15;;;;;;;58.55;36.70;;;128.10;2150.40;;;;;;5117057;28;20015;-85
2021/01/09 04:41:41;;;;;;;55.85;35.85;;;128.10;2150.40;;;;;;5116725;28;20035;-84
2021/01/09 04:44:08;;;;;;;66.57;43.85;;;128.20;2150.40;;;;;;5117072;28;20096;-84
2021/01/09 04:46:43;;;;;;;61.63;40.70;;;128.20;2150.40;;;;;;5116889;28;20039;-83
2021/01/09 04:49:10;;;;;;;63.35;41.28;;;128.20;2150.40;;;;;;5117000;28;20015;-84
2021/01/09 04:51:37;;;;;;;60.40;37.17;;;128.20;2150.40;;;;;;5116812;28;20098;-84
2021/01/09 04:54:03;;;;;;;71.72;44.95;;;128.20;2150.40;;;;;;5116700;28;20102;-82
2021/01/09 04:56:29;;;;;;;105.10;59.35;;;128.20;2150.40;;;;;;5116440;28;20065;-83
2021/01/09 04:58:55;;;;;;;80.40;51.75;;;128.20;2124.80;;;;;;5116431;28;20034;-83
2021/01/09 05:01:21;;;;;;;72.38;46.08;;;128.20;2150.40;;;;;;5116359;28;20019;-83
2021/01/09 05:03:48;;;;;;;79.53;53.05;;;128.20;2150.40;;;;;;5116426;28;20103;-81
2021/01/09 05:06:20;;;;;;;82.97;50.88;;;128.20;2150.40;;;;;;5116209;28;20023;-81
2021/01/09 05:08:47;;;;;;;80.43;49.58;;;128.20;2150.40;;;;;;5116152;28;20375;-82
2021/01/09 05:11:16;;;;;;;85.18;54.97;;;128.10;2150.40;;;;;;5097832;28;20039;-82
2021/01/09 05:13:43;;;;;;;81.47;52.72;;;128.20;2150.40;;;;;;5115945;28;20066;-83
2021/01/09 05:16:10;;;;;;;75.80;52.08;;;128.10;2150.40;;;;;;5116257;28;20213;-82
2021/01/09 05:18:38;;;;;;;71.22;49.00;;;128.10;2150.40;;;;;;5116136;28;20086;-82
2021/01/09 05:21:06;;;;;;;76.63;51.53;;;128.00;2150.40;;;;;;5116160;28;20472;-82
2021/01/09 05:23:49;;;;;;;62.25;44.03;;;128.00;2150.40;;;;;;5116038;28;20027;-84
2021/01/09 05:26:18;;;;;;;58.65;39.25;;;128.00;2150.40;;;;;;5115907;28;20460;-81
2021/01/09 05:28:47;;;;;;;58.38;38.70;;;128.00;2150.40;;;;;;5115375;28;20047;-81
2021/01/09 05:31:14;;;;;;;60.78;41.47;;;128.00;2124.80;;;;;;5115987;28;20020;-82
2021/01/09 05:33:41;;;;;;;60.05;39.22;;;103.30;2099.20;;;;;;5097573;28;20440;-83
2021/01/09 05:36:07;;;;;;;61.05;41.38;;;103.30;2099.20;;;;;;5115349;28;20023;-80
2021/01/09 05:38:37;;;;;;;58.78;40.08;;;128.00;2124.80;;;;;;5096827;28;20379;-80
2021/01/09 05:41:05;;;;;;;53.30;38.38;;;128.00;2124.80;;;;;;5115403;28;20015;-79
2021/01/09 05:43:30;;;;;;;58.97;40.28;;;128.00;2099.20;;;;;;5115324;28;20518;-80
2021/01/09 05:45:58;;;;;;;55.58;36.33;;;103.30;2073.60;;;;;;5115358;28;20051;-81
2021/01/09 05:48:25;;;;;;;53.72;36.95;;;103.30;2073.60;;;;;;5097055;28;20482;-79
2021/01/09 05:50:53;;;;;;;46.85;31.42;;;128.00;2099.20;;;;;;5115058;28;20032;-77
2021/01/09 05:53:47;;;;;;;46.70;32.72;;;128.00;2099.20;;;;;;5115239;28;20115;-81
2021/01/09 05:56:15;;;;;;;50.45;33.78;;;128.10;2099.20;;;;;;5115309;28;20098;-80
2021/01/09 05:58:41;;;;;;;47.25;31.80;;;128.00;2073.60;;;;;;5115090;28;20027;-80
2021/01/09 06:01:12;;;;;;;62.58;38.55;;;103.30;2048.00;;;;;;5096778;28;20089;-82
2021/01/09 06:03:39;;;;;;;56.20;37.83;;;103.30;2048.00;;;;;;5115063;28;20016;-78
2021/01/09 06:06:17;;;;;;;51.33;34.85;;;103.30;2048.00;;;;;;5114884;28;20119;-81
2021/01/09 06:08:58;;;;;;;65.70;44.72;;;103.30;2048.00;;;;;;5096526;28;20031;-78
2021/01/09 06:11:39;;;;;;;68.63;44.33;;;103.30;2073.60;;;;;;5114950;28;20098;-83
2021/01/09 06:14:07;;;;;;;70.97;45.28;;;103.30;2048.00;;;;;;5114919;28;20032;-83
2021/01/09 06:16:35;;;;;;;166.18;96.70;;;103.20;2073.60;;;;;;5115313;28;20026;-83
2021/01/09 06:19:02;;;;;;;129.48;76.90;;;103.20;2073.60;;;;;;5114680;28;20027;-84
2021/01/09 06:21:30;;;;;;;78.00;47.05;;;103.20;2073.60;;;;;;5115023;28;20039;-87
2021/01/09 06:23:57;;;;;;;68.93;46.30;;;103.20;2073.60;;;;;;5115089;28;20023;-81
2021/01/09 06:26:24;;;;;;;64.43;45.88;;;103.20;2073.60;;;;;;5095942;28;20031;-80
2021/01/09 06:28:58;;;;;;;61.35;42.53;;;103.30;2073.60;;;;;;5114414;28;20067;-80
2021/01/09 06:31:28;;;;;;;64.57;46.17;;;103.20;2073.60;;;;;;5114318;28;20059;-79
2021/01/09 06:33:56;;;;;;;68.88;48.00;;;103.20;2073.60;;;;;;5113784;28;20035;-78
2021/01/09 06:36:24;;;;;;;78.18;51.30;;;103.30;2073.60;;;;;;5114398;28;20019;-79
2021/01/09 06:38:56;;;;;;;84.35;56.20;;;103.30;2073.60;;;;;;5113968;28;20027;-79
2021/01/09 06:41:23;;;;;;;85.82;59.38;;;103.20;2073.60;;;;;;5114479;28;20028;-81
2021/01/09 06:43:52;;;;;;;89.95;61.35;;;103.20;2099.20;;;;;;5114058;28;20020;-79
2021/01/09 06:46:34;;;;;;;76.05;51.35;;;103.20;2099.20;;;;;;5114205;28;20459;-81
2021/01/09 06:49:00;;;;;;;61.60;41.08;;;103.10;2073.60;;;;;;5114039;28;20575;-81
2021/01/09 06:51:54;;;;;;;77.72;50.05;;;103.20;2048.00;;;;;;5114355;28;20069;-81
2021/01/09 06:54:22;;;;;;;86.70;63.73;;;103.20;2022.40;;;;;;5031551;28;20041;-82
2021/01/09 06:56:49;;;;;;;74.43;55.05;;;103.20;2022.40;;;;;;5031186;28;20259;-76
2021/01/09 06:59:34;;;;;;;73.82;50.35;;;103.20;2022.40;;;;;;5031430;28;20034;-76
2021/01/09 07:02:12;;;;;;;79.47;48.67;;;103.20;1996.80;;;;;;5031077;28;20061;-80
2021/01/09 07:05:06;;;;;;;81.50;51.17;;;103.20;2022.40;;;;;;5031364;28;20054;-76
2021/01/09 07:07:39;;;;;;;94.72;58.70;;;103.30;1996.80;;;;;;5014525;28;20099;-76
2021/01/09 07:10:18;;;;;;;99.75;63.05;;;103.20;2022.40;;;;;;5031189;28;20113;-77
2021/01/09 07:12:57;;;;;;;96.45;62.58;;;103.20;2022.40;;;;;;5031019;28;20867;-77
2021/01/09 07:15:25;;;;;;;97.70;63.58;;;103.20;2022.40;;;;;;5031081;28;20021;-77
2021/01/09 07:17:54;;;;;;;92.32;62.22;;;103.20;2022.40;;;;;;5030948;28;20084;-77
2021/01/09 07:20:23;;;;;;;109.65;71.75;;;103.20;1996.80;;;;;;5031140;28;20026;-76
2021/01/09 07:22:51;;;;;;;144.10;88.85;;;103.30;2022.40;;;;;;5031153;28;20026;-76
2021/01/09 07:25:35;;;;;;;129.82;81.47;;;103.30;1996.80;;;;;;5044993;28;20132;-76
2021/01/09 07:28:14;;;;;;;143.93;97.10;;;103.30;2022.40;;;;;;5034255;28;20559;-78
2021/01/09 07:30:41;;;;;;;125.03;83.63;;;128.00;2022.40;;;;;;5067720;28;20028;-88
2021/01/09 07:33:09;;;;;;;187.23;100.57;;;128.10;2048.00;;;;;;5112567;28;20093;-80
2021/01/09 07:35:38;;;;;;;125.63;85.60;;;128.20;2048.00;;;;;;5113798;28;20035;-80
2021/01/09 07:38:06;;;;;;;109.82;73.72;;;128.40;2022.40;;;;;;5112608;28;20028;-79
2021/01/09 07:40:57;;;;;;;73.32;53.30;;;128.60;1996.80;;;;;;5112033;28;20038;-77
2021/01/09 07:43:47;;;;;;;81.20;54.40;;;128.80;1971.20;;;;;;5084599;28;20446;-81
2021/01/09 07:46:30;;;;;;;108.97;73.15;;;128.80;1996.80;;;;;;5092633;28;20502;-77
2021/01/09 07:48:57;;;;;;;141.73;91.57;;;128.90;1971.20;;;;;;5092926;28;20106;-76
2021/01/09 07:51:49;;;;;;;84.90;59.22;;;153.60;1945.60;;;;;;5092491;28;20027;-78
2021/01/09 07:54:29;;;;;;;50.35;35.03;;;153.60;1945.60;;;;;;5112542;28;20070;-76
2021/01/09 07:56:56;;;;;;;51.60;35.33;;;153.70;1894.40;;;;;;5107656;28;20024;-78
2021/01/09 07:59:21;;;;;;;47.78;34.47;;;153.70;1894.40;;;;;;5113056;28;20031;-81
2021/01/09 08:01:47;;;;;;;46.90;31.75;;;153.80;1894.40;;;;;;5115577;28;20027;-81
2021/01/09 08:04:13;;;;;;;49.95;35.58;;;154.00;1894.40;;;;;;5116114;28;20471;-82
2021/01/09 08:06:39;;;;;;;32.83;25.00;;;154.10;1868.80;;;;;;5092027;28;20540;-81
2021/01/09 08:09:06;;;;;;;32.28;24.50;;;154.10;1843.20;;;;;;5106711;28;20114;-80
2021/01/09 08:11:31;;;;;;;31.20;23.45;;;154.20;1843.20;;;;;;5106386;28;20019;-80
2021/01/09 08:14:01;;;;;;;226.98;164.93;;;154.10;1817.60;;;;;;5115867;28;20489;-81
2021/01/09 08:16:27;;;;;;;64.38;47.22;;;154.00;1843.20;;;;;;5103251;28;20031;-81
2021/01/09 08:18:52;;;;;;;48.63;34.90;;;153.90;1843.20;;;;;;5103569;28;20024;-80
2021/01/09 08:21:23;;;;;;;51.70;37.33;;;154.00;1843.20;;;;;;5115993;28;20019;-80
2021/01/09 08:23:55;;;;;;;57.20;34.55;;;154.10;1843.20;;;;;;5105657;28;20052;-81
2021/01/09 08:26:22;;;;;;;46.15;31.42;;;154.00;1817.60;;;;;;5086516;28;20533;-80
2021/01/09 08:28:50;;;;;;;35.92;26.35;;;154.00;1817.60;;;;;;5106561;27;20049;-81
2021/01/09 08:31:16;;;;;;;49.55;37.55;;;154.00;1792.00;;;;;;5108514;27;20084;-82
2021/01/09 08:33:47;;;;;;;40.33;29.15;;;154.00;1817.60;;;;;;5119319;27;20035;-83
2021/01/09 08:36:15;;;;;;;53.75;40.03;;;154.00;1817.60;;;;;;5109255;28;20020;-84
2021/01/09 08:38:41;;;;;;;53.38;36.47;;;154.10;1817.60;;;;;;5108785;27;20034;-82
2021/01/09 08:41:07;;;;;;;45.55;33.10;;;154.20;1817.60;;;;;;5106772;27;20110;-80
2021/01/09 08:43:32;;;;;;;51.15;33.83;;;154.30;1766.40;;;;;;5127359;27;20019;-81
2021/01/09 08:45:58;;;;;;;48.83;34.15;;;154.30;1792.00;;;;;;5106800;27;20019;-79
2021/01/09 08:48:25;;;;;;;35.75;26.02;;;154.50;1766.40;;;;;;5108010;27;20375;-80
2021/01/09 08:51:13;;;;;;;31.38;22.02;;;154.50;1792.00;;;;;;5124559;27;20098;-82
2021/01/09 08:53:55;;;;;;;35.53;25.63;;;154.50;1740.80;;;;;;5106036;27;20076;-81
2021/01/09 08:56:24;;;;;;;44.55;32.65;;;179.20;1740.80;;;;;;5125278;27;20475;-81
2021/01/09 08:58:50;;;;;;;47.35;35.03;;;154.50;1740.80;;;;;;5121450;27;20015;-81
2021/01/09 09:01:24;;;;;;;54.88;37.33;;;179.20;1766.40;;;;;;5107448;27;20504;-81
2021/01/09 09:03:55;;;;;;;40.33;29.33;;;179.20;1766.40;;;;;;5107361;27;20039;-81
2021/01/09 09:06:28;;;;;;;45.72;34.97;;;179.20;1715.20;;;;;;5108763;27;20053;-81
2021/01/09 09:08:55;;;;;;;39.60;28.67;;;179.30;1740.80;;;;;;5109536;27;20035;-81
2021/01/09 09:11:25;;;;;;;45.50;34.05;;;179.20;1715.20;;;;;;5117472;27;20015;-79
2021/01/09 09:14:10;;;;;;;41.72;29.00;;;154.50;1715.20;;;;;;5118237;27;20031;-81
2021/01/09 09:16:38;;;;;;;45.85;32.75;;;154.50;1689.60;;;;;;5106374;27;20478;-78
2021/01/09 09:19:14;;;;;;;36.65;26.80;;;179.20;1766.40;;;;;;5107456;27;20383;-81
2021/01/09 09:21:44;;;;;;;46.38;32.90;;;179.40;1740.80;;;;;;5103934;28;20513;-81
2021/01/09 09:24:14;;;;;;;32.92;24.70;;;179.50;1740.80;;;;;;5124716;27;20375;-81
2021/01/09 09:26:41;;;;;;;45.72;33.70;;;179.70;1689.60;;;;;;5122608;27;20112;-80
2021/01/09 09:29:08;;;;;;;35.20;26.38;;;179.70;1689.60;;;;;;5094522;28;20047;-80
2021/01/09 09:31:41;;;;;;;36.92;25.83;;;179.90;1664.00;;;;;;5085159;28;20383;-81
2021/01/09 09:34:12;;;;;;;39.60;28.50;;;179.90;1664.00;;;;;;5097440;28;20047;-80
2021/01/09 09:37:01;;;;;;;47.60;35.95;;;180.10;1664.00;;;;;;5082171;28;20020;-82
2021/01/09 09:39:27;;;;;;;40.95;28.20;;;180.10;1638.40;;;;;;4995242;28;20026;-81
2021/01/09 09:42:01;;;;;;;42.70;30.02;;;180.10;1638.40;;;;;;5012769;28;20062;-80
2021/01/09 09:45:07;;;;;;;36.08;25.00;;;204.80;1612.80;;;;;;4996560;28;20030;-82
2021/01/09 09:47:34;;;;;;;37.08;26.25;;;180.10;1612.80;;;;;;4995936;28;20161;-81
2021/01/09 09:50:00;;;;;;;32.72;23.55;;;180.10;1612.80;;;;;;4996192;28;20167;-81
2021/01/09 09:52:26;;;;;;;36.63;27.65;;;180.10;1612.80;;;;;;4996676;28;20515;-82
2021/01/09 09:55:05;;;;;;;35.67;26.58;;;180.10;1612.80;;;;;;4996422;28;20026;-81
2021/01/09 09:57:31;;;;;;;29.33;21.95;;;180.10;1612.80;;;;;;4995633;28;20414;-80
2021/01/09 10:00:15;;;;;;;29.33;22.67;;;204.80;1612.80;;;;;;5013801;28;20022;-81
2021/01/09 10:02:54;;;;;;;;;;;204.90;1587.20;;;;;;4996269;28;20095;-80
2021/01/09 10:05:20;;;;;;;28.95;19.42;;;205.00;1612.80;;;;;;4997154;28;19905;-81
2021/01/09 10:07:46;;;;;;;33.10;23.60;;;205.10;1561.60;;;;;;4996141;28;20121;-80
2021/01/09 10:10:20;;;;;;;27.40;17.98;;;205.10;1561.60;;;;;;4998405;28;20118;-81
2021/01/09 10:12:56;;;;;;;34.35;24.05;;;205.20;1561.60;;;;;;5012296;28;20062;-80
2021/01/09 10:15:22;;;;;;;32.13;23.98;;;205.30;1536.00;;;;;;4999948;28;20026;-81
2021/01/09 10:17:51;;;;;;;28.23;21.23;;;205.40;1536.00;;;;;;5084480;28;20491;-79
2021/01/09 10:20:17;;;;;;;33.00;25.35;;;205.60;1484.80;;;;;;5094799;28;20063;-79
2021/01/09 10:22:43;;;;;;;28.33;21.55;;;205.50;1510.40;;;;;;5077495;28;20027;-79
2021/01/09 10:25:09;;;;;;;52.10;39.35;;;205.30;1536.00;;;;;;5078898;28;20020;-78
2021/01/09 10:27:34;;;;;;;39.88;27.92;;;205.30;1561.60;;;;;;5082811;28;20019;-78
2021/01/09 10:30:00;;;;;;;30.90;21.60;;;205.30;1561.60;;;;;;5102582;28;20071;-81
2021/01/09 10:32:28;;;;;;;25.48;19.75;;;205.40;1536.00;;;;;;5103719;27;20394;-79
2021/01/09 10:34:54;;;;;;;44.28;32.10;;;205.40;1561.60;;;;;;5105560;27;20015;-78
2021/01/09 10:37:19;;;;;;;33.20;23.50;;;205.50;1561.60;;;;;;5104150;28;20071;-79
2021/01/09 10:39:45;;;;;;;41.70;30.55;;;205.60;1536.00;;;;;;5113723;28;20016;-80
2021/01/09 10:42:11;;;;;;;31.85;24.20;;;205.70;1561.60;;;;;;5103750;28;20412;-79
2021/01/09 10:44:36;;;;;;;53.40;36.90;;;230.40;1484.80;;;;;;5098068;28;20032;-87
2021/01/09 10:47:02;;;;;;;42.88;30.05;;;205.70;1484.80;;;;;;5113932;28;20028;-82
2021/01/09 10:49:28;;;;;;;34.53;24.33;;;205.70;1510.40;;;;;;5105665;28;20027;-83
2021/01/09 10:51:53;;;;;;;43.17;35.38;;;230.50;1484.80;;;;;;5097384;28;20032;-81
2021/01/09 10:54:19;;;;;;;34.38;22.88;;;230.40;1510.40;;;;;;5113332;28;20054;-79
2021/01/09 10:56:48;;;;;;;49.17;36.83;;;230.60;1459.20;;;;;;5099513;28;20054;-84
2021/01/09 10:59:13;;;;;;;36.40;25.75;;;230.40;1510.40;;;;;;5100514;28;20055;-79
2021/01/09 11:01:39;;;;;;;30.77;25.00;;;230.40;1510.40;;;;;;5113533;28;20050;-78
2021/01/09 11:04:05;;;;;;;32.60;25.10;;;230.40;1484.80;;;;;;5113576;28;20102;-77
2021/01/09 11:06:31;;;;;;;27.73;20.55;;;230.40;1484.80;;;;;;5113850;28;20020;-78
2021/01/09 11:08:57;;;;;;;57.08;43.20;;;205.70;1484.80;;;;;;5113380;28;20375;-77
2021/01/09 11:11:23;;;;;;;51.10;33.63;;;205.70;1510.40;;;;;;5113936;28;20104;-76
2021/01/09 11:13:49;;;;;;;32.85;24.83;;;205.30;1536.00;;;;;;5113606;28;20106;-78
2021/01/09 11:16:21;;;;;;;29.08;20.92;;;205.00;1510.40;;;;;;5095353;28;20031;-80
2021/01/09 11:18:47;;;;;;;41.83;27.35;;;205.00;1561.60;;;;;;5095662;28;20387;-79
2021/01/09 11:21:14;;;;;;;35.67;25.63;;;204.90;1561.60;;;;;;5113594;28;20020;-77
2021/01/09 11:23:42;;;;;;;39.85;26.63;;;204.80;1561.60;;;;;;5095395;28;20027;-76
2021/01/09 11:26:09;;;;;;;37.03;24.85;;;204.80;1612.80;;;;;;5113165;28;20031;-75
2021/01/09 11:28:35;;;;;;;41.95;28.92;;;180.10;1587.20;;;;;;5105821;28;20074;-75
2021/01/09 11:31:01;;;;;;;31.98;24.63;;;180.10;1587.20;;;;;;5093286;28;20063;-76
2021/01/09 11:33:26;;;;;;;29.63;24.25;;;180.10;1587.20;;;;;;5093117;28;20039;-75
2021/01/09 11:35:52;;;;;;;31.27;22.58;;;180.10;1587.20;;;;;;5095417;28;20020;-76
2021/01/09 11:38:19;;;;;;;39.97;26.50;;;204.80;1561.60;;;;;;5097338;28;20092;-77
2021/01/09 11:40:45;;;;;;;33.28;25.90;;;204.80;1587.20;;;;;;5097032;28;20464;-77
2021/01/09 11:43:10;;;;;;;40.03;29.48;;;204.80;1561.60;;;;;;5096849;28;20055;-76
2021/01/09 11:45:36;;;;;;;39.60;27.23;;;204.90;1561.60;;;;;;5096704;28;20047;-76
2021/01/09 11:48:02;;;;;;;49.38;32.75;;;204.90;1561.60;;;;;;5096794;28;20032;-76
2021/01/09 11:50:28;;;;;;;65.25;44.60;;;205.10;1561.60;;;;;;5096992;28;20038;-76
2021/01/09 11:52:54;;;;;;;80.70;50.40;;;204.90;1561.60;;;;;;5096760;28;20083;-76
2021/01/09 11:55:19;;;;;;;84.78;51.20;;;180.00;1638.40;;;;;;5097243;28;20016;-78
2021/01/09 11:57:45;;;;;;;63.15;39.40;;;179.80;1638.40;;;;;;5099800;28;20046;-77
2021/01/09 12:00:11;;;;;;;84.65;51.15;;;179.40;1638.40;;;;;;5094016;28;20040;-79
2021/01/09 12:02:38;;;;;;;65.50;44.70;;;179.20;1689.60;;;;;;5080871;28;20055;-80
2021/01/09 12:05:06;;;;;;;133.65;96.07;;;179.30;1715.20;;;;;;5078591;28;20206;-77
2021/01/09 12:07:32;;;;;;;95.70;71.43;;;179.20;1715.20;;;;;;5096349;28;20038;-77